sensor_id;sensor_type;location;lat;lon;timestamp;P1;durP1;ratioP1;P2;durP2;ratioP2
16775;SDS011;8505;49.456;8.164;2022-10-31T00:00:47;11.17;;;3.83;;
16775;SDS011;8505;49.456;8.164;2022-10-31T00:03:16;11.40;;;4.30;;
16775;SDS011;8505;49.456;8.164;2022-10-31T00:05:46;10.32;;;3.80;;
16775;SDS011;8505;49.456;8.164;2022-10-31T00:08:16;12.45;;;4.38;;
16775;SDS011;8505;49.456;8.164;2022-10-31T00:10:46;13.52;;;4.55;;
16775;SDS011;8505;49.456;8.164;2022-10-31T00:13:14;13.87;;;3.80;;
16775;SDS011;8505;49.456;8.164;2022-10-31T00:15:42;9.80;;;4.00;;
16775;SDS011;8505;49.456;8.164;2022-10-31T00:18:10;13.02;;;4.22;;
16775;SDS011;8505;49.456;8.164;2022-10-31T00:20:38;14.80;;;4.38;;
16775;SDS011;8505;49.456;8.164;2022-10-31T00:23:07;16.42;;;4.93;;
16775;SDS011;8505;49.456;8.164;2022-10-31T00:25:36;14.27;;;4.68;;
16775;SDS011;8505;49.456;8.164;2022-10-31T00:28:08;14.70;;;4.25;;
16775;SDS011;8505;49.456;8.164;2022-10-31T00:30:39;13.10;;;4.43;;
16775;SDS011;8505;49.456;8.164;2022-10-31T00:33:06;12.00;;;4.30;;
16775;SDS011;8505;49.456;8.164;2022-10-31T00:35:34;12.48;;;4.07;;
16775;SDS011;8505;49.456;8.164;2022-10-31T00:38:02;12.32;;;4.32;;
16775;SDS011;8505;49.456;8.164;2022-10-31T00:40:32;11.93;;;4.07;;
16775;SDS011;8505;49.456;8.164;2022-10-31T00:43:04;11.80;;;4.10;;
16775;SDS011;8505;49.456;8.164;2022-10-31T00:45:34;11.93;;;4.28;;
16775;SDS011;8505;49.456;8.164;2022-10-31T00:48:05;15.20;;;4.22;;
16775;SDS011;8505;49.456;8.164;2022-10-31T00:50:34;16.20;;;4.45;;
16775;SDS011;8505;49.456;8.164;2022-10-31T00:53:12;15.38;;;4.60;;
16775;SDS011;8505;49.456;8.164;2022-10-31T00:55:40;14.17;;;4.47;;
16775;SDS011;8505;49.456;8.164;2022-10-31T00:58:10;14.45;;;4.40;;
16775;SDS011;8505;49.456;8.164;2022-10-31T01:00:39;11.38;;;4.45;;
16775;SDS011;8505;49.456;8.164;2022-10-31T01:03:09;12.38;;;4.25;;
16775;SDS011;8505;49.456;8.164;2022-10-31T01:05:38;11.00;;;4.43;;
16775;SDS011;8505;49.456;8.164;2022-10-31T01:08:05;12.75;;;4.38;;
16775;SDS011;8505;49.456;8.164;2022-10-31T01:10:34;13.70;;;4.90;;
16775;SDS011;8505;49.456;8.164;2022-10-31T01:13:02;14.45;;;4.30;;
16775;SDS011;8505;49.456;8.164;2022-10-31T01:15:30;11.13;;;4.50;;
16775;SDS011;8505;49.456;8.164;2022-10-31T01:17:59;10.95;;;4.35;;
16775;SDS011;8505;49.456;8.164;2022-10-31T01:20:28;13.15;;;4.25;;
16775;SDS011;8505;49.456;8.164;2022-10-31T01:22:56;11.07;;;4.75;;
16775;SDS011;8505;49.456;8.164;2022-10-31T01:25:24;15.90;;;4.50;;
16775;SDS011;8505;49.456;8.164;2022-10-31T01:27:52;13.25;;;4.28;;
16775;SDS011;8505;49.456;8.164;2022-10-31T01:30:20;14.38;;;4.60;;
16775;SDS011;8505;49.456;8.164;2022-10-31T01:32:49;13.27;;;4.70;;
16775;SDS011;8505;49.456;8.164;2022-10-31T01:35:21;13.02;;;4.53;;
16775;SDS011;8505;49.456;8.164;2022-10-31T01:37:49;17.58;;;4.85;;
16775;SDS011;8505;49.456;8.164;2022-10-31T01:40:17;16.38;;;4.70;;
16775;SDS011;8505;49.456;8.164;2022-10-31T01:42:45;15.80;;;4.63;;
16775;SDS011;8505;49.456;8.164;2022-10-31T01:48:09;11.48;;;4.50;;
16775;SDS011;8505;49.456;8.164;2022-10-31T01:50:42;15.55;;;5.07;;
16775;SDS011;8505;49.456;8.164;2022-10-31T01:53:13;14.25;;;4.93;;
16775;SDS011;8505;49.456;8.164;2022-10-31T01:55:47;13.52;;;4.78;;
16775;SDS011;8505;49.456;8.164;2022-10-31T01:58:16;10.03;;;4.50;;
16775;SDS011;8505;49.456;8.164;2022-10-31T02:00:49;12.32;;;4.47;;
16775;SDS011;8505;49.456;8.164;2022-10-31T02:03:21;10.97;;;4.53;;
16775;SDS011;8505;49.456;8.164;2022-10-31T02:05:51;14.13;;;4.50;;
16775;SDS011;8505;49.456;8.164;2022-10-31T02:08:23;12.65;;;4.40;;
16775;SDS011;8505;49.456;8.164;2022-10-31T02:10:54;13.07;;;4.85;;
16775;SDS011;8505;49.456;8.164;2022-10-31T02:13:24;13.02;;;4.50;;
16775;SDS011;8505;49.456;8.164;2022-10-31T02:15:54;11.53;;;4.20;;
16775;SDS011;8505;49.456;8.164;2022-10-31T02:18:24;12.40;;;4.50;;
16775;SDS011;8505;49.456;8.164;2022-10-31T02:21:01;12.85;;;4.43;;
16775;SDS011;8505;49.456;8.164;2022-10-31T02:23:47;10.37;;;4.20;;
16775;SDS011;8505;49.456;8.164;2022-10-31T02:26:41;15.52;;;4.68;;
16775;SDS011;8505;49.456;8.164;2022-10-31T02:29:23;13.03;;;4.53;;
16775;SDS011;8505;49.456;8.164;2022-10-31T02:32:05;15.65;;;4.47;;
16775;SDS011;8505;49.456;8.164;2022-10-31T02:34:41;13.65;;;4.80;;
16775;SDS011;8505;49.456;8.164;2022-10-31T02:37:16;12.18;;;4.30;;
16775;SDS011;8505;49.456;8.164;2022-10-31T02:39:53;13.40;;;4.60;;
16775;SDS011;8505;49.456;8.164;2022-10-31T02:42:29;16.85;;;4.25;;
16775;SDS011;8505;49.456;8.164;2022-10-31T02:45:05;11.95;;;4.15;;
16775;SDS011;8505;49.456;8.164;2022-10-31T02:47:39;12.20;;;4.30;;
16775;SDS011;8505;49.456;8.164;2022-10-31T02:50:12;13.85;;;4.40;;
16775;SDS011;8505;49.456;8.164;2022-10-31T02:52:49;11.88;;;4.13;;
16775;SDS011;8505;49.456;8.164;2022-10-31T02:58:12;14.38;;;4.28;;
16775;SDS011;8505;49.456;8.164;2022-10-31T03:00:49;9.50;;;3.90;;
16775;SDS011;8505;49.456;8.164;2022-10-31T03:03:42;13.45;;;4.40;;
16775;SDS011;8505;49.456;8.164;2022-10-31T03:06:22;11.55;;;4.10;;
16775;SDS011;8505;49.456;8.164;2022-10-31T03:09:00;11.93;;;4.10;;
16775;SDS011;8505;49.456;8.164;2022-10-31T03:11:34;12.15;;;4.30;;
16775;SDS011;8505;49.456;8.164;2022-10-31T03:14:11;11.90;;;4.32;;
16775;SDS011;8505;49.456;8.164;2022-10-31T03:16:45;14.70;;;4.50;;
16775;SDS011;8505;49.456;8.164;2022-10-31T03:19:16;11.53;;;4.10;;
16775;SDS011;8505;49.456;8.164;2022-10-31T03:21:48;11.82;;;4.40;;
16775;SDS011;8505;49.456;8.164;2022-10-31T03:24:21;11.40;;;4.40;;
16775;SDS011;8505;49.456;8.164;2022-10-31T03:26:52;13.40;;;4.43;;
16775;SDS011;8505;49.456;8.164;2022-10-31T03:29:26;13.10;;;4.57;;
16775;SDS011;8505;49.456;8.164;2022-10-31T03:31:57;14.68;;;4.72;;
16775;SDS011;8505;49.456;8.164;2022-10-31T03:34:29;17.07;;;4.80;;
16775;SDS011;8505;49.456;8.164;2022-10-31T03:36:59;11.30;;;4.60;;
16775;SDS011;8505;49.456;8.164;2022-10-31T03:39:31;15.38;;;4.50;;
16775;SDS011;8505;49.456;8.164;2022-10-31T03:42:06;14.57;;;4.90;;
16775;SDS011;8505;49.456;8.164;2022-10-31T03:44:36;12.07;;;4.72;;
16775;SDS011;8505;49.456;8.164;2022-10-31T03:47:08;13.32;;;4.93;;
16775;SDS011;8505;49.456;8.164;2022-10-31T03:49:38;13.02;;;5.07;;
16775;SDS011;8505;49.456;8.164;2022-10-31T03:52:08;15.45;;;5.28;;
16775;SDS011;8505;49.456;8.164;2022-10-31T03:54:44;15.43;;;5.50;;
16775;SDS011;8505;49.456;8.164;2022-10-31T03:57:14;16.05;;;5.63;;
16775;SDS011;8505;49.456;8.164;2022-10-31T03:59:48;13.73;;;5.38;;
16775;SDS011;8505;49.456;8.164;2022-10-31T04:02:25;13.23;;;5.57;;
16775;SDS011;8505;49.456;8.164;2022-10-31T04:04:59;15.25;;;5.60;;
16775;SDS011;8505;49.456;8.164;2022-10-31T04:07:28;13.52;;;5.20;;
16775;SDS011;8505;49.456;8.164;2022-10-31T04:10:01;15.13;;;5.60;;
16775;SDS011;8505;49.456;8.164;2022-10-31T04:12:33;12.50;;;5.45;;
16775;SDS011;8505;49.456;8.164;2022-10-31T04:15:03;15.18;;;5.70;;
16775;SDS011;8505;49.456;8.164;2022-10-31T04:17:34;17.52;;;5.88;;
16775;SDS011;8505;49.456;8.164;2022-10-31T04:20:09;16.40;;;5.75;;
16775;SDS011;8505;49.456;8.164;2022-10-31T04:22:38;14.67;;;5.87;;
16775;SDS011;8505;49.456;8.164;2022-10-31T04:25:08;14.48;;;6.05;;
16775;SDS011;8505;49.456;8.164;2022-10-31T04:27:41;14.23;;;6.10;;
16775;SDS011;8505;49.456;8.164;2022-10-31T04:30:09;18.23;;;6.30;;
16775;SDS011;8505;49.456;8.164;2022-10-31T04:32:39;15.50;;;6.18;;
16775;SDS011;8505;49.456;8.164;2022-10-31T04:35:08;16.33;;;6.18;;
16775;SDS011;8505;49.456;8.164;2022-10-31T04:37:36;17.02;;;6.47;;
16775;SDS011;8505;49.456;8.164;2022-10-31T04:40:04;17.10;;;6.45;;
16775;SDS011;8505;49.456;8.164;2022-10-31T04:42:33;13.73;;;6.00;;
16775;SDS011;8505;49.456;8.164;2022-10-31T04:45:00;14.48;;;5.60;;
16775;SDS011;8505;49.456;8.164;2022-10-31T04:47:30;12.85;;;5.53;;
16775;SDS011;8505;49.456;8.164;2022-10-31T04:49:58;16.08;;;5.93;;
16775;SDS011;8505;49.456;8.164;2022-10-31T04:52:28;16.80;;;5.57;;
16775;SDS011;8505;49.456;8.164;2022-10-31T04:54:56;15.52;;;5.43;;
16775;SDS011;8505;49.456;8.164;2022-10-31T04:57:24;15.52;;;5.90;;
16775;SDS011;8505;49.456;8.164;2022-10-31T04:59:52;17.40;;;6.30;;
16775;SDS011;8505;49.456;8.164;2022-10-31T05:02:20;15.35;;;5.93;;
16775;SDS011;8505;49.456;8.164;2022-10-31T05:04:48;19.23;;;6.57;;
16775;SDS011;8505;49.456;8.164;2022-10-31T05:07:16;15.23;;;6.30;;
16775;SDS011;8505;49.456;8.164;2022-10-31T05:09:45;17.52;;;6.40;;
16775;SDS011;8505;49.456;8.164;2022-10-31T05:12:13;15.57;;;6.25;;
16775;SDS011;8505;49.456;8.164;2022-10-31T05:14:41;17.13;;;6.57;;
16775;SDS011;8505;49.456;8.164;2022-10-31T05:17:13;19.63;;;6.80;;
16775;SDS011;8505;49.456;8.164;2022-10-31T05:19:41;16.50;;;6.32;;
16775;SDS011;8505;49.456;8.164;2022-10-31T05:22:09;15.77;;;6.83;;
16775;SDS011;8505;49.456;8.164;2022-10-31T05:24:37;15.68;;;7.28;;
16775;SDS011;8505;49.456;8.164;2022-10-31T05:27:06;18.15;;;7.25;;
16775;SDS011;8505;49.456;8.164;2022-10-31T05:29:34;16.90;;;7.03;;
16775;SDS011;8505;49.456;8.164;2022-10-31T05:32:02;17.58;;;6.72;;
16775;SDS011;8505;49.456;8.164;2022-10-31T05:34:34;18.42;;;7.07;;
16775;SDS011;8505;49.456;8.164;2022-10-31T05:37:02;15.25;;;6.70;;
16775;SDS011;8505;49.456;8.164;2022-10-31T05:39:30;17.00;;;6.50;;
16775;SDS011;8505;49.456;8.164;2022-10-31T05:41:58;19.87;;;6.80;;
16775;SDS011;8505;49.456;8.164;2022-10-31T05:44:27;16.13;;;6.90;;
16775;SDS011;8505;49.456;8.164;2022-10-31T05:46:55;15.83;;;6.57;;
16775;SDS011;8505;49.456;8.164;2022-10-31T05:49:23;13.87;;;6.50;;
16775;SDS011;8505;49.456;8.164;2022-10-31T05:51:51;14.85;;;6.88;;
16775;SDS011;8505;49.456;8.164;2022-10-31T05:54:19;17.58;;;6.85;;
16775;SDS011;8505;49.456;8.164;2022-10-31T05:56:47;16.05;;;6.57;;
16775;SDS011;8505;49.456;8.164;2022-10-31T05:59:15;15.38;;;6.57;;
16775;SDS011;8505;49.456;8.164;2022-10-31T06:01:44;19.05;;;6.60;;
16775;SDS011;8505;49.456;8.164;2022-10-31T06:04:12;15.43;;;6.15;;
16775;SDS011;8505;49.456;8.164;2022-10-31T06:06:40;14.57;;;6.17;;
16775;SDS011;8505;49.456;8.164;2022-10-31T06:09:08;15.00;;;6.28;;
16775;SDS011;8505;49.456;8.164;2022-10-31T06:11:36;15.57;;;6.30;;
16775;SDS011;8505;49.456;8.164;2022-10-31T06:14:03;16.58;;;5.93;;
16775;SDS011;8505;49.456;8.164;2022-10-31T06:16:32;13.88;;;6.28;;
16775;SDS011;8505;49.456;8.164;2022-10-31T06:19:01;14.68;;;6.35;;
16775;SDS011;8505;49.456;8.164;2022-10-31T06:21:29;12.95;;;5.90;;
16775;SDS011;8505;49.456;8.164;2022-10-31T06:23:57;18.05;;;6.57;;
16775;SDS011;8505;49.456;8.164;2022-10-31T06:26:25;17.10;;;6.30;;
16775;SDS011;8505;49.456;8.164;2022-10-31T06:28:53;17.40;;;6.43;;
16775;SDS011;8505;49.456;8.164;2022-10-31T06:31:28;16.85;;;6.43;;
16775;SDS011;8505;49.456;8.164;2022-10-31T06:33:55;15.57;;;6.37;;
16775;SDS011;8505;49.456;8.164;2022-10-31T06:36:25;15.35;;;6.28;;
16775;SDS011;8505;49.456;8.164;2022-10-31T06:38:56;15.60;;;6.28;;
16775;SDS011;8505;49.456;8.164;2022-10-31T06:41:24;15.95;;;6.75;;
16775;SDS011;8505;49.456;8.164;2022-10-31T06:43:53;15.55;;;7.32;;
16775;SDS011;8505;49.456;8.164;2022-10-31T06:46:23;20.55;;;7.10;;
16775;SDS011;8505;49.456;8.164;2022-10-31T06:48:51;18.30;;;7.18;;
16775;SDS011;8505;49.456;8.164;2022-10-31T06:51:21;14.82;;;6.65;;
16775;SDS011;8505;49.456;8.164;2022-10-31T06:53:51;15.93;;;6.40;;
16775;SDS011;8505;49.456;8.164;2022-10-31T06:56:19;17.48;;;6.72;;
16775;SDS011;8505;49.456;8.164;2022-10-31T06:58:47;18.10;;;6.50;;
16775;SDS011;8505;49.456;8.164;2022-10-31T07:01:18;16.03;;;6.10;;
16775;SDS011;8505;49.456;8.164;2022-10-31T07:03:46;13.25;;;6.55;;
16775;SDS011;8505;49.456;8.164;2022-10-31T07:06:14;15.43;;;6.03;;
16775;SDS011;8505;49.456;8.164;2022-10-31T07:08:42;13.77;;;5.73;;
16775;SDS011;8505;49.456;8.164;2022-10-31T07:11:11;14.63;;;5.80;;
16775;SDS011;8505;49.456;8.164;2022-10-31T07:13:39;16.13;;;5.80;;
16775;SDS011;8505;49.456;8.164;2022-10-31T07:16:07;13.87;;;5.50;;
16775;SDS011;8505;49.456;8.164;2022-10-31T07:18:38;16.60;;;6.15;;
16775;SDS011;8505;49.456;8.164;2022-10-31T07:21:06;16.60;;;6.45;;
16775;SDS011;8505;49.456;8.164;2022-10-31T07:23:35;12.02;;;6.22;;
16775;SDS011;8505;49.456;8.164;2022-10-31T07:26:03;16.60;;;6.30;;
16775;SDS011;8505;49.456;8.164;2022-10-31T07:28:32;14.77;;;5.82;;
16775;SDS011;8505;49.456;8.164;2022-10-31T07:31:00;13.27;;;6.00;;
16775;SDS011;8505;49.456;8.164;2022-10-31T07:33:29;15.07;;;6.10;;
16775;SDS011;8505;49.456;8.164;2022-10-31T07:35:57;14.77;;;6.38;;
16775;SDS011;8505;49.456;8.164;2022-10-31T07:38:25;14.45;;;6.30;;
16775;SDS011;8505;49.456;8.164;2022-10-31T07:40:53;22.20;;;7.03;;
16775;SDS011;8505;49.456;8.164;2022-10-31T07:43:21;36.57;;;7.10;;
16775;SDS011;8505;49.456;8.164;2022-10-31T07:45:51;16.67;;;6.47;;
16775;SDS011;8505;49.456;8.164;2022-10-31T07:48:19;16.42;;;6.22;;
16775;SDS011;8505;49.456;8.164;2022-10-31T07:50:47;15.48;;;5.90;;
16775;SDS011;8505;49.456;8.164;2022-10-31T07:53:15;20.23;;;6.60;;
16775;SDS011;8505;49.456;8.164;2022-10-31T07:55:43;15.30;;;7.10;;
16775;SDS011;8505;49.456;8.164;2022-10-31T07:58:11;17.88;;;7.15;;
16775;SDS011;8505;49.456;8.164;2022-10-31T08:00:41;13.65;;;6.50;;
16775;SDS011;8505;49.456;8.164;2022-10-31T08:03:12;18.73;;;6.32;;
16775;SDS011;8505;49.456;8.164;2022-10-31T08:05:41;16.88;;;6.45;;
16775;SDS011;8505;49.456;8.164;2022-10-31T08:08:12;14.95;;;6.35;;
16775;SDS011;8505;49.456;8.164;2022-10-31T08:10:41;13.25;;;6.03;;
16775;SDS011;8505;49.456;8.164;2022-10-31T08:13:10;15.30;;;6.15;;
16775;SDS011;8505;49.456;8.164;2022-10-31T08:15:39;15.57;;;6.10;;
16775;SDS011;8505;49.456;8.164;2022-10-31T08:18:10;14.30;;;6.18;;
16775;SDS011;8505;49.456;8.164;2022-10-31T08:20:44;14.60;;;6.43;;
16775;SDS011;8505;49.456;8.164;2022-10-31T08:23:20;18.98;;;7.15;;
16775;SDS011;8505;49.456;8.164;2022-10-31T08:25:58;14.63;;;6.47;;
16775;SDS011;8505;49.456;8.164;2022-10-31T08:28:26;16.73;;;6.60;;
16775;SDS011;8505;49.456;8.164;2022-10-31T08:30:54;14.40;;;6.60;;
16775;SDS011;8505;49.456;8.164;2022-10-31T08:33:23;13.65;;;6.63;;
16775;SDS011;8505;49.456;8.164;2022-10-31T08:35:51;18.30;;;7.85;;
16775;SDS011;8505;49.456;8.164;2022-10-31T08:38:19;15.07;;;7.70;;
16775;SDS011;8505;49.456;8.164;2022-10-31T08:40:48;17.75;;;7.40;;
16775;SDS011;8505;49.456;8.164;2022-10-31T08:43:17;13.30;;;7.45;;
16775;SDS011;8505;49.456;8.164;2022-10-31T08:45:47;14.52;;;7.10;;
16775;SDS011;8505;49.456;8.164;2022-10-31T08:48:16;17.10;;;8.10;;
16775;SDS011;8505;49.456;8.164;2022-10-31T08:50:46;16.98;;;8.55;;
16775;SDS011;8505;49.456;8.164;2022-10-31T08:53:15;18.70;;;9.15;;
16775;SDS011;8505;49.456;8.164;2022-10-31T08:55:45;20.15;;;9.43;;
16775;SDS011;8505;49.456;8.164;2022-10-31T08:58:14;20.13;;;8.90;;
16775;SDS011;8505;49.456;8.164;2022-10-31T09:00:43;18.90;;;8.73;;
16775;SDS011;8505;49.456;8.164;2022-10-31T09:03:12;15.80;;;8.70;;
16775;SDS011;8505;49.456;8.164;2022-10-31T09:05:41;18.17;;;9.27;;
16775;SDS011;8505;49.456;8.164;2022-10-31T09:08:11;18.20;;;9.05;;
16775;SDS011;8505;49.456;8.164;2022-10-31T09:10:42;20.35;;;9.52;;
16775;SDS011;8505;49.456;8.164;2022-10-31T09:13:12;18.48;;;9.57;;
16775;SDS011;8505;49.456;8.164;2022-10-31T09:15:42;19.85;;;9.15;;
16775;SDS011;8505;49.456;8.164;2022-10-31T09:18:12;18.30;;;8.88;;
16775;SDS011;8505;49.456;8.164;2022-10-31T09:20:41;17.20;;;9.35;;
16775;SDS011;8505;49.456;8.164;2022-10-31T09:23:12;16.13;;;8.73;;
16775;SDS011;8505;49.456;8.164;2022-10-31T09:25:42;18.27;;;8.97;;
16775;SDS011;8505;49.456;8.164;2022-10-31T09:28:17;20.70;;;9.30;;
16775;SDS011;8505;49.456;8.164;2022-10-31T09:30:48;16.02;;;8.80;;
16775;SDS011;8505;49.456;8.164;2022-10-31T09:33:17;19.95;;;8.63;;
16775;SDS011;8505;49.456;8.164;2022-10-31T09:35:45;16.08;;;8.90;;
16775;SDS011;8505;49.456;8.164;2022-10-31T09:38:16;14.07;;;8.35;;
16775;SDS011;8505;49.456;8.164;2022-10-31T09:40:46;16.00;;;8.40;;
16775;SDS011;8505;49.456;8.164;2022-10-31T09:43:18;15.20;;;8.35;;
16775;SDS011;8505;49.456;8.164;2022-10-31T09:45:56;16.52;;;7.82;;
16775;SDS011;8505;49.456;8.164;2022-10-31T09:48:34;16.23;;;8.32;;
16775;SDS011;8505;49.456;8.164;2022-10-31T09:51:10;17.38;;;7.78;;
16775;SDS011;8505;49.456;8.164;2022-10-31T09:53:42;15.40;;;8.18;;
16775;SDS011;8505;49.456;8.164;2022-10-31T09:56:16;16.00;;;7.97;;
16775;SDS011;8505;49.456;8.164;2022-10-31T09:58:47;16.08;;;7.72;;
16775;SDS011;8505;49.456;8.164;2022-10-31T10:01:36;15.80;;;7.50;;
16775;SDS011;8505;49.456;8.164;2022-10-31T10:04:17;16.30;;;7.70;;
16775;SDS011;8505;49.456;8.164;2022-10-31T10:07:08;17.52;;;7.72;;
16775;SDS011;8505;49.456;8.164;2022-10-31T10:09:45;17.08;;;7.85;;
16775;SDS011;8505;49.456;8.164;2022-10-31T10:12:15;16.10;;;7.55;;
16775;SDS011;8505;49.456;8.164;2022-10-31T10:14:56;16.70;;;7.93;;
16775;SDS011;8505;49.456;8.164;2022-10-31T10:17:38;17.40;;;7.47;;
16775;SDS011;8505;49.456;8.164;2022-10-31T10:20:16;17.40;;;8.35;;
16775;SDS011;8505;49.456;8.164;2022-10-31T10:22:51;16.55;;;7.82;;
16775;SDS011;8505;49.456;8.164;2022-10-31T10:25:33;14.77;;;7.80;;
16775;SDS011;8505;49.456;8.164;2022-10-31T10:28:12;16.38;;;7.70;;
16775;SDS011;8505;49.456;8.164;2022-10-31T10:30:48;17.33;;;8.15;;
16775;SDS011;8505;49.456;8.164;2022-10-31T10:33:21;15.10;;;7.72;;
16775;SDS011;8505;49.456;8.164;2022-10-31T10:35:57;18.67;;;7.97;;
16775;SDS011;8505;49.456;8.164;2022-10-31T10:38:28;17.70;;;8.07;;
16775;SDS011;8505;49.456;8.164;2022-10-31T10:41:05;15.37;;;7.93;;
16775;SDS011;8505;49.456;8.164;2022-10-31T10:43:37;15.38;;;7.45;;
16775;SDS011;8505;49.456;8.164;2022-10-31T10:46:18;18.42;;;8.20;;
16775;SDS011;8505;49.456;8.164;2022-10-31T10:49:10;17.08;;;7.75;;
16775;SDS011;8505;49.456;8.164;2022-10-31T10:51:44;16.63;;;8.27;;
16775;SDS011;8505;49.456;8.164;2022-10-31T10:54:46;16.92;;;8.48;;
16775;SDS011;8505;49.456;8.164;2022-10-31T10:57:35;17.45;;;7.93;;
16775;SDS011;8505;49.456;8.164;2022-10-31T11:00:30;14.50;;;8.10;;
16775;SDS011;8505;49.456;8.164;2022-10-31T11:03:02;17.27;;;8.25;;
16775;SDS011;8505;49.456;8.164;2022-10-31T11:05:33;19.70;;;9.18;;
16775;SDS011;8505;49.456;8.164;2022-10-31T11:08:04;17.92;;;8.15;;
16775;SDS011;8505;49.456;8.164;2022-10-31T11:10:34;14.45;;;8.30;;
16775;SDS011;8505;49.456;8.164;2022-10-31T11:13:05;15.35;;;7.90;;
16775;SDS011;8505;49.456;8.164;2022-10-31T11:15:53;15.93;;;8.00;;
16775;SDS011;8505;49.456;8.164;2022-10-31T11:18:25;20.55;;;8.70;;
16775;SDS011;8505;49.456;8.164;2022-10-31T11:20:58;16.15;;;8.05;;
16775;SDS011;8505;49.456;8.164;2022-10-31T11:23:28;14.70;;;8.10;;
16775;SDS011;8505;49.456;8.164;2022-10-31T11:25:58;14.43;;;7.80;;
16775;SDS011;8505;49.456;8.164;2022-10-31T11:28:29;17.52;;;8.30;;
16775;SDS011;8505;49.456;8.164;2022-10-31T11:30:59;17.67;;;8.52;;
16775;SDS011;8505;49.456;8.164;2022-10-31T11:33:29;16.88;;;7.85;;
16775;SDS011;8505;49.456;8.164;2022-10-31T11:36:00;15.30;;;8.00;;
16775;SDS011;8505;49.456;8.164;2022-10-31T11:38:31;15.70;;;7.83;;
16775;SDS011;8505;49.456;8.164;2022-10-31T11:41:07;18.05;;;8.80;;
16775;SDS011;8505;49.456;8.164;2022-10-31T11:43:45;17.63;;;8.57;;
16775;SDS011;8505;49.456;8.164;2022-10-31T11:46:22;17.27;;;8.13;;
16775;SDS011;8505;49.456;8.164;2022-10-31T11:48:55;16.13;;;8.70;;
16775;SDS011;8505;49.456;8.164;2022-10-31T11:51:24;17.35;;;8.38;;
16775;SDS011;8505;49.456;8.164;2022-10-31T11:53:55;20.50;;;8.75;;
16775;SDS011;8505;49.456;8.164;2022-10-31T11:56:37;15.93;;;8.07;;
16775;SDS011;8505;49.456;8.164;2022-10-31T11:59:14;16.85;;;8.07;;
16775;SDS011;8505;49.456;8.164;2022-10-31T12:01:46;17.50;;;8.20;;
16775;SDS011;8505;49.456;8.164;2022-10-31T12:04:16;16.67;;;7.53;;
16775;SDS011;8505;49.456;8.164;2022-10-31T12:06:44;17.95;;;8.50;;
16775;SDS011;8505;49.456;8.164;2022-10-31T12:09:17;14.88;;;8.10;;
16775;SDS011;8505;49.456;8.164;2022-10-31T12:11:53;13.63;;;7.65;;
16775;SDS011;8505;49.456;8.164;2022-10-31T12:14:43;15.10;;;7.53;;
16775;SDS011;8505;49.456;8.164;2022-10-31T12:17:21;17.88;;;7.85;;
16775;SDS011;8505;49.456;8.164;2022-10-31T12:19:58;13.45;;;7.03;;
16775;SDS011;8505;49.456;8.164;2022-10-31T12:22:34;15.27;;;7.40;;
16775;SDS011;8505;49.456;8.164;2022-10-31T12:25:15;17.08;;;8.27;;
16775;SDS011;8505;49.456;8.164;2022-10-31T12:30:53;15.85;;;7.40;;
16775;SDS011;8505;49.456;8.164;2022-10-31T12:33:34;15.60;;;7.50;;
16775;SDS011;8505;49.456;8.164;2022-10-31T12:36:15;21.40;;;8.15;;
16775;SDS011;8505;49.456;8.164;2022-10-31T12:38:57;17.33;;;7.10;;
16775;SDS011;8505;49.456;8.164;2022-10-31T12:41:37;15.07;;;7.05;;
16775;SDS011;8505;49.456;8.164;2022-10-31T12:44:21;15.82;;;7.15;;
16775;SDS011;8505;49.456;8.164;2022-10-31T12:47:17;15.82;;;7.50;;
16775;SDS011;8505;49.456;8.164;2022-10-31T12:50:08;18.55;;;7.20;;
16775;SDS011;8505;49.456;8.164;2022-10-31T12:52:50;16.90;;;7.50;;
16775;SDS011;8505;49.456;8.164;2022-10-31T12:55:34;15.98;;;7.40;;
16775;SDS011;8505;49.456;8.164;2022-10-31T12:58:09;14.40;;;7.63;;
16775;SDS011;8505;49.456;8.164;2022-10-31T13:00:42;21.05;;;8.52;;
16775;SDS011;8505;49.456;8.164;2022-10-31T13:03:23;14.73;;;7.60;;
16775;SDS011;8505;49.456;8.164;2022-10-31T13:05:54;16.33;;;7.63;;
16775;SDS011;8505;49.456;8.164;2022-10-31T13:08:26;18.70;;;8.20;;
16775;SDS011;8505;49.456;8.164;2022-10-31T13:11:00;15.07;;;7.72;;
16775;SDS011;8505;49.456;8.164;2022-10-31T13:13:35;15.85;;;7.35;;
16775;SDS011;8505;49.456;8.164;2022-10-31T13:16:07;20.25;;;7.88;;
16775;SDS011;8505;49.456;8.164;2022-10-31T13:18:42;15.10;;;7.97;;
16775;SDS011;8505;49.456;8.164;2022-10-31T13:21:16;16.48;;;7.47;;
16775;SDS011;8505;49.456;8.164;2022-10-31T13:23:49;18.73;;;7.43;;
16775;SDS011;8505;49.456;8.164;2022-10-31T13:26:23;16.55;;;7.70;;
16775;SDS011;8505;49.456;8.164;2022-10-31T13:29:03;17.90;;;7.50;;
16775;SDS011;8505;49.456;8.164;2022-10-31T13:31:39;14.70;;;6.80;;
16775;SDS011;8505;49.456;8.164;2022-10-31T13:34:10;16.25;;;6.95;;
16775;SDS011;8505;49.456;8.164;2022-10-31T13:36:48;16.58;;;7.15;;
16775;SDS011;8505;49.456;8.164;2022-10-31T13:39:24;18.67;;;7.30;;
16775;SDS011;8505;49.456;8.164;2022-10-31T13:42:01;15.83;;;7.10;;
16775;SDS011;8505;49.456;8.164;2022-10-31T13:44:36;15.15;;;6.50;;
16775;SDS011;8505;49.456;8.164;2022-10-31T13:47:23;12.45;;;6.05;;
16775;SDS011;8505;49.456;8.164;2022-10-31T13:50:05;13.48;;;6.10;;
16775;SDS011;8505;49.456;8.164;2022-10-31T13:52:45;14.20;;;6.33;;
16775;SDS011;8505;49.456;8.164;2022-10-31T13:58:03;13.27;;;6.28;;
16775;SDS011;8505;49.456;8.164;2022-10-31T14:00:31;14.87;;;6.37;;
16775;SDS011;8505;49.456;8.164;2022-10-31T14:03:01;13.05;;;5.65;;
16775;SDS011;8505;49.456;8.164;2022-10-31T14:05:31;11.50;;;5.75;;
16775;SDS011;8505;49.456;8.164;2022-10-31T14:08:01;15.48;;;5.90;;
16775;SDS011;8505;49.456;8.164;2022-10-31T14:10:31;11.93;;;5.78;;
16775;SDS011;8505;49.456;8.164;2022-10-31T14:13:03;13.55;;;5.80;;
16775;SDS011;8505;49.456;8.164;2022-10-31T14:15:32;14.68;;;5.50;;
16775;SDS011;8505;49.456;8.164;2022-10-31T14:18:02;13.38;;;5.25;;
16775;SDS011;8505;49.456;8.164;2022-10-31T14:20:36;12.40;;;5.25;;
16775;SDS011;8505;49.456;8.164;2022-10-31T14:23:11;13.60;;;5.43;;
16775;SDS011;8505;49.456;8.164;2022-10-31T14:25:40;14.75;;;5.50;;
16775;SDS011;8505;49.456;8.164;2022-10-31T14:28:20;13.37;;;5.30;;
16775;SDS011;8505;49.456;8.164;2022-10-31T14:30:58;13.48;;;5.10;;
16775;SDS011;8505;49.456;8.164;2022-10-31T14:33:27;12.73;;;4.95;;
16775;SDS011;8505;49.456;8.164;2022-10-31T14:35:59;14.95;;;5.50;;
16775;SDS011;8505;49.456;8.164;2022-10-31T14:38:36;14.02;;;5.60;;
16775;SDS011;8505;49.456;8.164;2022-10-31T14:44:25;15.82;;;5.38;;
16775;SDS011;8505;49.456;8.164;2022-10-31T14:47:21;11.10;;;4.95;;
16775;SDS011;8505;49.456;8.164;2022-10-31T14:50:04;12.02;;;5.40;;
16775;SDS011;8505;49.456;8.164;2022-10-31T14:52:47;12.73;;;5.35;;
16775;SDS011;8505;49.456;8.164;2022-10-31T14:55:17;14.25;;;5.70;;
16775;SDS011;8505;49.456;8.164;2022-10-31T14:57:48;14.75;;;5.53;;
16775;SDS011;8505;49.456;8.164;2022-10-31T15:00:20;14.90;;;6.18;;
16775;SDS011;8505;49.456;8.164;2022-10-31T15:02:53;13.52;;;5.78;;
16775;SDS011;8505;49.456;8.164;2022-10-31T15:05:30;12.95;;;5.93;;
16775;SDS011;8505;49.456;8.164;2022-10-31T15:08:01;14.43;;;6.00;;
16775;SDS011;8505;49.456;8.164;2022-10-31T15:10:30;15.32;;;6.57;;
16775;SDS011;8505;49.456;8.164;2022-10-31T15:13:10;14.93;;;6.65;;
16775;SDS011;8505;49.456;8.164;2022-10-31T15:15:44;14.70;;;6.70;;
16775;SDS011;8505;49.456;8.164;2022-10-31T15:18:17;17.55;;;7.00;;
16775;SDS011;8505;49.456;8.164;2022-10-31T15:20:48;16.90;;;6.97;;
16775;SDS011;8505;49.456;8.164;2022-10-31T15:23:22;16.80;;;7.03;;
16775;SDS011;8505;49.456;8.164;2022-10-31T15:25:57;17.58;;;7.50;;
16775;SDS011;8505;49.456;8.164;2022-10-31T15:28:26;15.50;;;7.35;;
16775;SDS011;8505;49.456;8.164;2022-10-31T15:30:55;17.95;;;7.88;;
16775;SDS011;8505;49.456;8.164;2022-10-31T15:33:24;16.02;;;7.30;;